Time;durP1;ratioP1;P1;durP2;ratioP2;P2;SDS_P1;SDS_P2;PMS_P1;PMS_P2;Temp;Humidity;BMP_temperature;BMP_pressure;BME280_temperature;BME280_humidity;BME280_pressure;Samples;Min_cycle;Max_cycle;Signal;HPM_P1;HPM_P2
2021/10/01 00:00:09;;;;;;;4.07;1.30;;;10.60;99.90;;;;;;5037808;28;20021;-87
2021/10/01 00:02:35;;;;;;;5.82;1.35;;;10.60;99.90;;;;;;5039221;28;20048;-87
2021/10/01 00:05:02;;;;;;;3.20;1.33;;;10.90;99.90;;;;;;5039257;28;20052;-87
2021/10/01 00:07:28;;;;;;;4.15;1.35;;;10.60;99.90;;;;;;5039129;28;20021;-86
2021/10/01 00:09:54;;;;;;;4.85;1.63;;;10.60;99.90;;;;;;5056940;28;20484;-86
2021/10/01 00:12:20;;;;;;;2.78;1.45;;;10.00;99.90;;;;;;5039188;28;20086;-86
2021/10/01 00:14:48;;;;;;;2.72;1.10;;;10.60;99.90;;;;;;5039024;28;20029;-86
2021/10/01 00:17:14;;;;;;;4.82;1.27;;;10.40;99.90;;;;;;5038933;28;20100;-87
2021/10/01 00:19:40;;;;;;;2.90;0.95;;;10.30;99.90;;;;;;5038898;28;20028;-86
2021/10/01 00:22:06;;;;;;;3.20;1.42;;;10.40;99.90;;;;;;5056753;28;20017;-87
2021/10/01 00:24:33;;;;;;;2.42;1.17;;;10.90;99.90;;;;;;5038957;28;20021;-86
2021/10/01 00:26:59;;;;;;;3.60;1.50;;;10.90;99.90;;;;;;5038756;28;20021;-87
2021/10/01 00:29:25;;;;;;;2.95;1.33;;;10.50;99.90;;;;;;5038757;28;20032;-87
2021/10/01 00:31:51;;;;;;;3.97;1.45;;;10.40;99.90;;;;;;5038720;28;20036;-87
2021/10/01 00:34:17;;;;;;;2.20;1.20;;;9.90;99.90;;;;;;5038602;28;20025;-87
2021/10/01 00:36:43;;;;;;;3.78;1.38;;;9.70;99.90;;;;;;5039757;28;20074;-87
2021/10/01 00:39:09;;;;;;;4.50;1.40;;;9.60;99.90;;;;;;5038546;28;20021;-87
2021/10/01 00:41:36;;;;;;;2.80;1.40;;;9.60;99.90;;;;;;5056466;28;20024;-87
2021/10/01 00:44:03;;;;;;;2.72;1.40;;;9.60;99.90;;;;;;5038510;28;20518;-86
2021/10/01 00:46:29;;;;;;;3.72;1.30;;;9.60;99.90;;;;;;5038478;28;20063;-86
2021/10/01 00:48:55;;;;;;;1.90;1.05;;;9.40;99.90;;;;;;5038324;28;20041;-86
2021/10/01 00:51:25;;;;;;;3.28;1.20;;;9.60;99.90;;;;;;5038622;28;20052;-86
2021/10/01 00:53:52;;;;;;;5.05;1.20;;;9.90;99.90;;;;;;5038180;28;20397;-86
2021/10/01 00:56:19;;;;;;;3.53;1.45;;;10.10;99.90;;;;;;5038306;28;20028;-87
2021/10/01 00:58:45;;;;;;;3.17;1.20;;;10.00;99.90;;;;;;5038294;28;20507;-86
2021/10/01 01:01:10;;;;;;;2.90;1.27;;;10.20;99.90;;;;;;5038176;28;20017;-86
2021/10/01 01:03:50;;;;;;;5.97;1.20;;;10.40;99.90;;;;;;5038082;28;20032;-87
2021/10/01 01:06:31;;;;;;;2.38;1.23;;;9.90;99.90;;;;;;5056331;28;20024;-87
2021/10/01 01:09:13;;;;;;;4.18;1.20;;;9.80;99.90;;;;;;5038114;28;20021;-87
2021/10/01 01:11:55;;;;;;;3.22;1.45;;;9.60;99.90;;;;;;5037342;28;20029;-88
2021/10/01 01:14:28;;;;;;;1.95;1.15;;;9.90;99.90;;;;;;5055801;28;20032;-87
2021/10/01 01:16:56;;;;;;;2.15;1.15;;;10.00;99.90;;;;;;5037872;28;20017;-87
2021/10/01 01:19:43;;;;;;;5.07;1.30;;;9.70;99.90;;;;;;5037808;28;20025;-87
2021/10/01 01:22:19;;;;;;;2.92;1.25;;;9.80;99.90;;;;;;5037835;28;20025;-86
2021/10/01 01:25:01;;;;;;;2.50;1.20;;;9.90;99.90;;;;;;5037816;28;20443;-86
2021/10/01 01:27:57;;;;;;;2.60;1.40;;;9.90;99.90;;;;;;5055683;28;20025;-87
2021/10/01 01:30:25;;;;;;;2.33;1.33;;;9.90;99.90;;;;;;5040906;28;20029;-86
2021/10/01 01:32:58;;;;;;;3.45;1.40;;;9.70;99.90;;;;;;5058052;28;20028;-86
2021/10/01 01:35:32;;;;;;;4.03;1.17;;;9.20;99.90;;;;;;5037813;28;20051;-86
2021/10/01 01:38:20;;;;;;;4.40;1.25;;;9.00;99.90;;;;;;5037649;28;20017;-86
2021/10/01 01:40:51;;;;;;;2.08;1.00;;;9.10;99.90;;;;;;5037586;28;20025;-86
2021/10/01 01:43:16;;;;;;;2.40;1.20;;;9.20;99.90;;;;;;5037237;28;20516;-86
2021/10/01 01:45:44;;;;;;;3.08;1.35;;;9.20;99.90;;;;;;5037289;28;20021;-86
2021/10/01 01:48:11;;;;;;;6.00;1.30;;;9.30;99.90;;;;;;5037289;28;20163;-86
2021/10/01 01:50:38;;;;;;;3.20;1.40;;;9.40;99.90;;;;;;5037214;28;20036;-86
2021/10/01 01:53:06;;;;;;;6.97;1.42;;;9.40;99.90;;;;;;5037226;28;20040;-87
2021/10/01 01:55:33;;;;;;;5.25;1.30;;;9.50;99.90;;;;;;5037673;28;20044;-86
2021/10/01 01:58:00;;;;;;;2.40;1.30;;;9.40;99.90;;;;;;5037208;28;20100;-86
2021/10/01 02:00:27;;;;;;;2.78;1.20;;;9.90;99.90;;;;;;5037044;28;20025;-86
2021/10/01 02:02:54;;;;;;;2.65;1.17;;;10.10;99.90;;;;;;5037355;28;20018;-86
2021/10/01 02:05:22;;;;;;;3.13;1.40;;;10.10;99.90;;;;;;5036974;28;20028;-88
2021/10/01 02:07:50;;;;;;;2.28;0.93;;;10.30;99.90;;;;;;5036894;28;20025;-87
2021/10/01 02:10:17;;;;;;;2.85;1.00;;;9.90;99.90;;;;;;5036904;28;20082;-86
2021/10/01 02:12:49;;;;;;;4.07;1.05;;;9.60;99.90;;;;;;5036841;28;20025;-86
2021/10/01 02:15:16;;;;;;;1.83;0.98;;;9.90;99.90;;;;;;5036655;28;20064;-87
2021/10/01 02:17:44;;;;;;;4.20;1.48;;;9.90;99.90;;;;;;5054585;28;20560;-86
2021/10/01 02:20:11;;;;;;;1.98;1.15;;;9.80;99.90;;;;;;5054965;28;20507;-86
2021/10/01 02:22:37;;;;;;;3.00;1.17;;;9.80;99.90;;;;;;5035751;28;20388;-87
2021/10/01 02:25:05;;;;;;;4.22;1.00;;;9.60;99.90;;;;;;5054477;28;20099;-87
2021/10/01 02:27:46;;;;;;;3.92;1.00;;;9.80;99.90;;;;;;5036579;28;20392;-87
2021/10/01 02:30:15;;;;;;;4.75;1.10;;;10.10;99.90;;;;;;5036608;28;20025;-86
2021/10/01 02:32:50;;;;;;;1.85;1.17;;;9.70;99.90;;;;;;5036519;28;20481;-87
2021/10/01 02:35:16;;;;;;;2.10;1.25;;;9.10;99.90;;;;;;5036452;28;20388;-86
2021/10/01 02:37:42;;;;;;;5.78;1.00;;;9.10;99.90;;;;;;5036218;28;20021;-87
2021/10/01 02:40:09;;;;;;;4.25;1.20;;;9.30;99.90;;;;;;5036288;28;20025;-87
2021/10/01 02:42:36;;;;;;;3.83;1.10;;;9.40;99.90;;;;;;5053913;28;20048;-86
2021/10/01 02:45:03;;;;;;;1.83;1.00;;;9.00;99.90;;;;;;5036216;28;20025;-87
2021/10/01 02:47:30;;;;;;;4.38;1.20;;;9.20;99.90;;;;;;5036219;28;20029;-86
2021/10/01 02:50:01;;;;;;;2.47;1.02;;;9.10;99.90;;;;;;5036067;28;20036;-86
2021/10/01 02:52:38;;;;;;;2.05;1.17;;;9.10;99.90;;;;;;5036107;28;20447;-87
2021/10/01 02:55:18;;;;;;;3.58;1.75;;;9.20;99.90;;;;;;5035832;28;20082;-87
2021/10/01 02:57:56;;;;;;;5.85;1.02;;;8.80;99.90;;;;;;5036174;28;20029;-86
2021/10/01 03:00:22;;;;;;;2.38;0.90;;;9.20;99.90;;;;;;5036019;28;20025;-86
2021/10/01 03:02:51;;;;;;;2.97;1.08;;;9.10;99.90;;;;;;5035964;28;20361;-86
2021/10/01 03:05:18;;;;;;;3.28;1.13;;;9.40;99.90;;;;;;5035861;28;20115;-86
2021/10/01 03:07:44;;;;;;;5.57;0.82;;;9.10;99.90;;;;;;5035803;28;20025;-87
2021/10/01 03:10:12;;;;;;;2.58;1.10;;;8.90;99.90;;;;;;5035774;28;20051;-86
2021/10/01 03:12:38;;;;;;;1.60;1.10;;;9.10;99.90;;;;;;5035771;28;20025;-86
2021/10/01 03:15:06;;;;;;;2.75;1.00;;;9.10;99.90;;;;;;5036094;28;20021;-86
2021/10/01 03:17:32;;;;;;;2.22;1.10;;;9.40;99.90;;;;;;5035713;28;20116;-87
2021/10/01 03:20:00;;;;;;;2.72;0.90;;;9.60;99.90;;;;;;5035675;28;20025;-87
2021/10/01 03:22:31;;;;;;;3.17;1.10;;;9.30;99.90;;;;;;5035507;28;20055;-86
2021/10/01 03:24:59;;;;;;;1.83;1.02;;;9.70;99.90;;;;;;5035553;28;20029;-86
2021/10/01 03:27:31;;;;;;;5.03;1.20;;;9.50;99.90;;;;;;5035462;28;20036;-87
2021/10/01 03:30:02;;;;;;;4.55;0.93;;;9.50;99.90;;;;;;5035458;28;20044;-86
2021/10/01 03:32:30;;;;;;;2.40;1.15;;;9.30;99.90;;;;;;5035412;28;20025;-86
2021/10/01 03:34:57;;;;;;;2.22;1.08;;;9.10;99.90;;;;;;5052874;28;20498;-86
2021/10/01 03:37:23;;;;;;;1.88;0.90;;;9.00;99.90;;;;;;5034904;28;20025;-87
2021/10/01 03:40:01;;;;;;;3.33;0.93;;;9.00;99.90;;;;;;5035438;28;20029;-87
2021/10/01 03:42:27;;;;;;;2.00;0.88;;;9.00;99.90;;;;;;5036425;28;20039;-87
2021/10/01 03:44:54;;;;;;;3.28;1.10;;;8.80;99.90;;;;;;5038358;28;20056;-86
2021/10/01 03:47:20;;;;;;;2.17;1.30;;;8.70;99.90;;;;;;5037193;28;20079;-86
2021/10/01 03:49:46;;;;;;;2.47;1.08;;;8.70;99.90;;;;;;5035779;28;20032;-87
2021/10/01 03:52:12;;;;;;;3.92;1.30;;;8.70;99.90;;;;;;5035360;28;20021;-87
2021/10/01 03:54:40;;;;;;;1.23;0.80;;;9.10;99.90;;;;;;5035226;28;20024;-86
2021/10/01 03:57:06;;;;;;;2.13;0.98;;;9.10;99.90;;;;;;5035154;28;20067;-87
2021/10/01 03:59:32;;;;;;;2.92;1.23;;;8.70;99.90;;;;;;5035090;28;20021;-87
2021/10/01 04:01:58;;;;;;;2.30;1.00;;;8.70;99.90;;;;;;5035185;28;20017;-87
2021/10/01 04:04:24;;;;;;;3.55;1.30;;;8.70;99.90;;;;;;5053249;28;20053;-87
2021/10/01 04:06:50;;;;;;;1.67;1.10;;;8.40;99.90;;;;;;5035059;28;20032;-86
2021/10/01 04:09:16;;;;;;;2.35;1.33;;;8.10;99.90;;;;;;5035007;28;20021;-87
2021/10/01 04:11:41;;;;;;;1.65;1.00;;;8.10;99.90;;;;;;5035056;28;20083;-86
2021/10/01 04:14:07;;;;;;;3.10;1.20;;;8.10;99.90;;;;;;5034916;28;20025;-87
2021/10/01 04:16:33;;;;;;;1.90;1.10;;;8.10;99.90;;;;;;5034994;28;20029;-87
2021/10/01 04:18:59;;;;;;;2.83;1.00;;;8.40;99.90;;;;;;5035015;28;20602;-87
2021/10/01 04:21:25;;;;;;;3.90;1.20;;;8.70;99.90;;;;;;5034963;28;20391;-86
2021/10/01 04:23:51;;;;;;;2.40;1.13;;;8.50;99.90;;;;;;5034807;28;20546;-86
2021/10/01 04:26:17;;;;;;;4.35;0.98;;;8.40;99.90;;;;;;5052725;28;20021;-87
2021/10/01 04:28:46;;;;;;;2.33;1.00;;;9.10;99.90;;;;;;5034873;28;20571;-87
2021/10/01 04:31:12;;;;;;;5.05;1.35;;;8.90;99.90;;;;;;5034730;28;20490;-87
2021/10/01 04:33:41;;;;;;;3.30;1.15;;;9.00;99.90;;;;;;5034861;28;20017;-86
2021/10/01 04:36:07;;;;;;;2.20;1.10;;;8.80;99.90;;;;;;5034587;28;20425;-86
2021/10/01 04:38:33;;;;;;;2.20;1.10;;;8.60;99.90;;;;;;5034684;28;20106;-87
2021/10/01 04:40:59;;;;;;;2.95;1.30;;;8.80;99.90;;;;;;5034788;28;20104;-86
2021/10/01 04:43:25;;;;;;;3.40;0.90;;;8.90;99.90;;;;;;5034534;28;20404;-87
2021/10/01 04:45:51;;;;;;;1.98;1.05;;;9.30;99.90;;;;;;5053011;28;20021;-87
2021/10/01 04:48:17;;;;;;;2.33;1.13;;;9.40;99.90;;;;;;5056600;28;20161;-87
2021/10/01 04:50:43;;;;;;;3.92;1.33;;;9.00;99.90;;;;;;5038400;28;20503;-87
2021/10/01 04:53:08;;;;;;;3.90;1.10;;;9.30;99.90;;;;;;5038741;28;20137;-86
2021/10/01 04:55:34;;;;;;;2.60;1.27;;;9.40;99.90;;;;;;5056095;28;20042;-86
2021/10/01 04:58:01;;;;;;;5.15;1.40;;;9.30;99.90;;;;;;5038237;28;20542;-86
2021/10/01 05:00:27;;;;;;;2.25;1.00;;;9.20;99.90;;;;;;5056402;28;20361;-87
2021/10/01 05:02:52;;;;;;;5.15;1.23;;;9.00;99.90;;;;;;5038205;28;20021;-88
2021/10/01 05:05:18;;;;;;;2.58;1.30;;;9.20;99.90;;;;;;5039989;28;20108;-86
2021/10/01 05:07:44;;;;;;;2.75;1.13;;;9.00;99.90;;;;;;5039640;28;20031;-87
2021/10/01 05:10:11;;;;;;;2.10;1.25;;;9.10;99.90;;;;;;5061739;28;20051;-86
2021/10/01 05:12:37;;;;;;;4.70;1.27;;;9.00;99.90;;;;;;5048094;28;20021;-88
2021/10/01 05:15:04;;;;;;;2.75;1.35;;;9.30;99.90;;;;;;5037930;28;20036;-87
2021/10/01 05:17:29;;;;;;;2.20;1.15;;;9.50;99.90;;;;;;5021651;28;20078;-87
2021/10/01 05:19:55;;;;;;;1.80;1.10;;;9.50;99.90;;;;;;5037998;28;20480;-87
2021/10/01 05:22:21;;;;;;;2.05;1.17;;;9.50;99.90;;;;;;5037895;28;20053;-87
2021/10/01 05:24:46;;;;;;;3.95;1.17;;;9.30;99.90;;;;;;5037739;28;20025;-87
2021/10/01 05:27:12;;;;;;;5.20;1.33;;;9.10;99.90;;;;;;5055824;28;20033;-88
2021/10/01 05:29:38;;;;;;;1.52;0.90;;;9.10;99.90;;;;;;5038163;28;20036;-87
2021/10/01 05:32:04;;;;;;;1.45;0.90;;;8.80;99.90;;;;;;5037671;28;20032;-87
2021/10/01 05:34:30;;;;;;;2.90;1.17;;;8.60;99.90;;;;;;5037759;28;20025;-87
2021/10/01 05:36:56;;;;;;;1.95;1.13;;;8.60;99.90;;;;;;5037583;28;20024;-87
2021/10/01 05:39:22;;;;;;;1.80;1.10;;;8.30;99.90;;;;;;5037509;28;20112;-87
2021/10/01 05:41:48;;;;;;;1.65;1.00;;;8.30;99.90;;;;;;5037486;28;20059;-87
2021/10/01 05:44:13;;;;;;;5.43;1.15;;;8.30;99.90;;;;;;5037126;28;20094;-86
2021/10/01 05:46:48;;;;;;;1.70;0.90;;;8.80;99.90;;;;;;5037573;28;20025;-87
2021/10/01 05:49:20;;;;;;;2.33;1.08;;;9.00;99.90;;;;;;5037479;28;20029;-87
2021/10/01 05:51:49;;;;;;;4.60;1.08;;;9.20;99.90;;;;;;5042309;28;20025;-87
2021/10/01 05:54:21;;;;;;;3.80;1.17;;;9.30;99.90;;;;;;5043504;28;20025;-87
2021/10/01 05:56:51;;;;;;;1.80;1.15;;;9.20;99.90;;;;;;5038614;28;20017;-87
2021/10/01 05:59:18;;;;;;;3.40;1.40;;;8.70;99.90;;;;;;5038746;28;20017;-87
2021/10/01 06:01:44;;;;;;;3.72;1.20;;;8.80;99.90;;;;;;5055533;28;20099;-87
2021/10/01 06:04:10;;;;;;;4.32;1.20;;;8.90;99.90;;;;;;5055101;28;20017;-86
2021/10/01 06:06:36;;;;;;;2.92;1.90;;;8.80;99.90;;;;;;5037548;28;20029;-87
2021/10/01 06:09:03;;;;;;;3.42;1.58;;;9.10;99.90;;;;;;5037003;28;20083;-88
2021/10/01 06:11:29;;;;;;;7.45;2.10;;;9.00;99.90;;;;;;5036928;28;20438;-87
2021/10/01 06:13:54;;;;;;;4.10;1.70;;;8.80;99.90;;;;;;5036746;28;20041;-87
2021/10/01 06:16:20;;;;;;;6.03;1.73;;;9.10;99.90;;;;;;5036882;28;20025;-87
2021/10/01 06:18:46;;;;;;;3.58;1.40;;;8.90;99.90;;;;;;5036872;28;20025;-87
2021/10/01 06:21:12;;;;;;;7.38;1.08;;;9.00;99.90;;;;;;5036700;28;20118;-86
2021/10/01 06:23:37;;;;;;;5.80;1.40;;;8.90;99.90;;;;;;5054628;28;20051;-87
2021/10/01 06:26:05;;;;;;;3.38;1.30;;;8.80;99.90;;;;;;5036707;28;20024;-87
2021/10/01 06:28:31;;;;;;;2.08;1.00;;;8.60;99.90;;;;;;5036733;28;20117;-87
2021/10/01 06:30:58;;;;;;;7.47;1.65;;;8.60;99.90;;;;;;5054480;28;20029;-87
2021/10/01 06:33:27;;;;;;;4.00;1.30;;;8.90;99.90;;;;;;5036478;28;20025;-87
2021/10/01 06:35:53;;;;;;;4.78;1.33;;;9.00;99.90;;;;;;5036807;28;20041;-87
2021/10/01 06:38:19;;;;;;;4.95;1.60;;;9.20;99.90;;;;;;5036433;28;20091;-87
2021/10/01 06:40:45;;;;;;;3.08;1.48;;;9.20;99.90;;;;;;5036354;28;20049;-87
2021/10/01 06:43:12;;;;;;;3.67;1.52;;;9.30;99.90;;;;;;5036174;28;20400;-87
2021/10/01 06:45:40;;;;;;;4.90;1.30;;;9.20;99.90;;;;;;5036267;28;20392;-87
2021/10/01 08:20:42;;;;;;;10.32;1.55;;;14.40;99.90;;;;;;5053684;28;20027;-85
2021/10/01 08:23:09;;;;;;;4.35;1.35;;;14.70;99.90;;;;;;5039011;28;20040;-85
2021/10/01 08:25:35;;;;;;;4.88;1.15;;;14.80;99.90;;;;;;5038922;28;20098;-86
2021/10/01 08:28:02;;;;;;;5.90;1.35;;;14.70;99.90;;;;;;5038856;28;20033;-86
2021/10/01 08:30:28;;;;;;;2.13;1.20;;;14.70;99.90;;;;;;5056781;28;20419;-86
2021/10/01 08:32:54;;;;;;;3.78;1.20;;;14.70;99.90;;;;;;5038870;28;20404;-86
2021/10/01 08:35:22;;;;;;;3.30;1.10;;;14.70;99.90;;;;;;5038797;28;20025;-85
2021/10/01 08:37:52;;;;;;;7.35;1.40;;;14.60;99.90;;;;;;5038891;28;20031;-86
2021/10/01 08:40:19;;;;;;;3.45;1.40;;;14.70;99.90;;;;;;5038939;28;20079;-86
2021/10/01 08:42:46;;;;;;;3.42;1.08;;;14.80;99.90;;;;;;5030753;28;20037;-86
2021/10/01 08:45:14;;;;;;;4.70;1.70;;;14.90;99.90;;;;;;5015549;28;20022;-85
2021/10/01 08:47:41;;;;;;;4.07;1.17;;;15.10;99.90;;;;;;5015517;28;20424;-86
2021/10/01 08:50:10;;;;;;;4.65;1.05;;;15.40;99.90;;;;;;5016137;28;20366;-87
2021/10/01 08:52:36;;;;;;;4.05;1.20;;;15.50;99.90;;;;;;5015418;28;20030;-87
2021/10/01 08:55:05;;;;;;;5.40;1.17;;;15.30;99.90;;;;;;5015357;28;20520;-86
2021/10/01 08:57:31;;;;;;;7.80;2.00;;;15.30;99.90;;;;;;5015656;28;20048;-86
2021/10/01 09:00:03;;;;;;;3.13;1.20;;;15.30;99.90;;;;;;5015410;28;20022;-86
2021/10/01 09:02:29;;;;;;;3.78;1.13;;;15.50;99.90;;;;;;5015593;28;20022;-86
2021/10/01 09:04:55;;;;;;;3.33;1.65;;;15.40;99.90;;;;;;5016530;28;20036;-87
2021/10/01 09:07:25;;;;;;;2.10;1.00;;;15.70;99.90;;;;;;5015252;28;20053;-87
2021/10/01 09:09:53;;;;;;;3.50;1.65;;;15.80;99.90;;;;;;5016824;28;20021;-86
2021/10/01 09:12:20;;;;;;;6.85;1.30;;;16.00;99.90;;;;;;5015282;28;20489;-86
2021/10/01 09:14:58;;;;;;;3.42;1.20;;;16.20;99.90;;;;;;5014886;28;20034;-86
2021/10/01 09:17:26;;;;;;;5.80;1.20;;;16.50;99.90;;;;;;5016157;28;20026;-87
2021/10/01 09:19:53;;;;;;;4.68;1.05;;;17.00;99.90;;;;;;5014936;28;20541;-86
2021/10/01 09:22:30;;;;;;;3.20;1.23;;;16.90;99.90;;;;;;5014793;28;20029;-86
2021/10/01 09:25:23;;;;;;;4.38;1.27;;;16.70;99.90;;;;;;5014761;28;20121;-86
2021/10/01 09:27:52;;;;;;;3.72;0.90;;;17.00;99.90;;;;;;5014769;28;20030;-86
2021/10/01 09:30:20;;;;;;;4.22;1.10;;;17.20;99.90;;;;;;5014710;28;20033;-86
2021/10/01 09:33:12;;;;;;;2.53;0.95;;;17.50;99.90;;;;;;5015648;28;20105;-86
2021/10/01 09:35:42;;;;;;;2.28;0.90;;;17.60;99.90;;;;;;5015975;28;20585;-89
2021/10/01 09:38:20;;;;;;;5.18;1.02;;;17.50;99.90;;;;;;5015363;28;20029;-89
2021/10/01 09:41:16;;;;;;;2.28;0.90;;;17.70;99.90;;;;;;5015218;28;20021;-90
2021/10/01 09:43:42;;;;;;;2.47;0.90;;;18.00;99.90;;;;;;5031091;28;20044;-89
2021/10/01 09:46:13;;;;;;;2.95;0.90;;;17.90;99.90;;;;;;5038927;28;20056;-88
2021/10/01 09:48:41;;;;;;;3.05;1.05;;;18.00;99.90;;;;;;5038529;28;20496;-88
2021/10/01 09:51:11;;;;;;;5.88;1.00;;;17.60;99.90;;;;;;5038245;28;20051;-88
2021/10/01 09:53:48;;;;;;;3.17;1.05;;;17.00;99.90;;;;;;5056639;28;20110;-89
2021/10/01 09:56:25;;;;;;;4.50;1.25;;;17.00;99.90;;;;;;5039123;28;20040;-89
2021/10/01 09:59:19;;;;;;;4.93;1.05;;;17.30;99.90;;;;;;5039710;28;20027;-90
2021/10/01 10:01:58;;;;;;;7.68;1.40;;;17.60;99.90;;;;;;5039017;28;20025;-90
2021/10/01 10:04:24;;;;;;;3.80;1.10;;;17.60;99.90;;;;;;5040191;28;20381;-90
2021/10/01 10:06:49;;;;;;;4.80;1.50;;;17.60;99.90;;;;;;5038119;28;20024;-88
2021/10/01 10:09:15;;;;;;;3.30;1.45;;;17.70;99.90;;;;;;5037269;28;20032;-89
2021/10/01 10:11:42;;;;;;;4.65;1.50;;;18.20;99.90;;;;;;5038855;28;20384;-89
2021/10/01 10:14:12;;;;;;;5.70;1.30;;;18.70;99.90;;;;;;5039342;28;20051;-89
2021/10/01 10:16:39;;;;;;;3.47;1.20;;;19.10;99.90;;;;;;5039738;28;20064;-88
2021/10/01 10:19:11;;;;;;;4.30;1.20;;;19.30;99.90;;;;;;5049227;28;20092;-88
2021/10/01 10:21:38;;;;;;;3.10;1.30;;;19.00;99.90;;;;;;5056148;28;20088;-87
2021/10/01 10:24:04;;;;;;;9.60;1.40;;;19.00;99.90;;;;;;5044501;28;20059;-89
2021/10/01 10:26:31;;;;;;;4.32;1.27;;;19.00;99.90;;;;;;5039508;28;20021;-89
2021/10/01 10:29:01;;;;;;;3.53;1.25;;;19.50;99.90;;;;;;5039464;28;20021;-89
2021/10/01 10:31:30;;;;;;;3.97;1.23;;;19.80;99.90;;;;;;5039031;28;20056;-88
2021/10/01 10:33:59;;;;;;;5.10;1.40;;;20.20;99.90;;;;;;5039905;28;20119;-89
2021/10/01 10:36:38;;;;;;;4.18;1.42;;;20.60;99.90;;;;;;5037669;28;20387;-89
2021/10/01 10:39:13;;;;;;;6.35;1.30;;;20.10;99.90;;;;;;5038438;28;20052;-89
2021/10/01 10:41:46;;;;;;;2.47;1.23;;;20.40;99.90;;;;;;5038003;28;20016;-89
2021/10/01 10:44:15;;;;;;;2.83;1.23;;;20.60;99.90;;;;;;5036774;28;20124;-89
2021/10/01 10:46:42;;;;;;;5.80;1.65;;;21.50;99.90;;;;;;5036912;28;20555;-89
2021/10/01 10:49:17;;;;;;;6.20;1.25;;;22.00;99.90;;;;;;5036569;28;20472;-88
2021/10/01 10:51:58;;;;;;;7.20;1.40;;;22.30;99.80;;;;;;5036584;28;20476;-90
2021/10/01 10:54:24;;;;;;;5.63;1.40;;;22.40;99.90;;;;;;5036790;28;20123;-89
2021/10/01 10:57:18;;;;;;;4.90;1.13;;;22.90;99.40;;;;;;5037214;28;20534;-89
2021/10/01 10:59:45;;;;;;;4.20;1.10;;;23.20;98.70;;;;;;5036864;28;20397;-89
2021/10/01 11:02:33;;;;;;;3.30;1.00;;;23.40;97.70;;;;;;5036889;28;20025;-89
2021/10/01 11:05:26;;;;;;;5.10;1.05;;;23.60;97.80;;;;;;5036671;28;20056;-88
2021/10/01 11:07:57;;;;;;;3.35;1.23;;;23.80;96.20;;;;;;5037703;28;20082;-89
2021/10/01 11:10:45;;;;;;;4.53;1.23;;;23.10;96.10;;;;;;5054080;28;20031;-86
2021/10/01 11:13:23;;;;;;;3.35;1.00;;;23.00;96.40;;;;;;5036689;28;20091;-88
2021/10/01 11:16:11;;;;;;;2.78;1.00;;;22.90;96.60;;;;;;5055310;28;20029;-89
2021/10/01 11:18:46;;;;;;;3.72;1.30;;;23.60;95.90;;;;;;5037822;28;20552;-91
2021/10/01 11:21:27;;;;;;;3.85;1.30;;;23.70;95.70;;;;;;5038623;28;20025;-90
2021/10/01 11:24:00;;;;;;;3.95;1.13;;;24.20;95.30;;;;;;5055208;28;20017;-91
2021/10/01 11:26:51;;;;;;;11.45;1.15;;;24.10;95.00;;;;;;5039468;28;20020;-92
2021/10/01 11:29:22;;;;;;;5.38;1.20;;;24.20;94.70;;;;;;5028104;28;20094;-91
2021/10/01 11:31:49;;;;;;;3.55;1.13;;;24.80;93.60;;;;;;5039218;28;20025;-91
2021/10/01 11:34:14;;;;;;;3.92;1.10;;;24.60;93.90;;;;;;5042812;28;20075;-93
2021/10/01 11:36:41;;;;;;;3.22;1.00;;;25.00;93.00;;;;;;5039384;28;20025;-90
2021/10/01 11:39:15;;;;;;;4.50;1.27;;;24.80;92.30;;;;;;5037235;28;20082;-90
2021/10/01 11:41:47;;;;;;;6.00;1.00;;;25.00;91.90;;;;;;5036783;28;20116;-89
2021/10/01 11:44:13;;;;;;;4.68;1.27;;;24.40;92.30;;;;;;5036142;28;20053;-90
2021/10/01 11:46:45;;;;;;;2.92;1.00;;;24.90;92.10;;;;;;5036900;28;20104;-88
2021/10/01 11:49:20;;;;;;;7.40;1.05;;;24.20;91.30;;;;;;5039799;28;20021;-89
2021/10/01 11:52:01;;;;;;;2.90;1.00;;;23.90;92.30;;;;;;5039668;28;20480;-90
2021/10/01 11:54:27;;;;;;;2.60;0.90;;;24.50;91.70;;;;;;5036989;28;20024;-89
2021/10/01 11:56:57;;;;;;;3.20;0.90;;;24.20;91.40;;;;;;5037202;28;20056;-90
2021/10/01 11:59:25;;;;;;;3.45;1.15;;;24.40;90.80;;;;;;5038034;28;20025;-93
2021/10/01 12:01:56;;;;;;;2.30;0.80;;;25.60;90.20;;;;;;5041068;28;20469;-90
2021/10/01 12:04:30;;;;;;;3.35;0.90;;;25.50;89.60;;;;;;5044457;28;20025;-91
2021/10/01 12:07:06;;;;;;;2.60;0.93;;;25.10;90.20;;;;;;5043562;28;20029;-93
2021/10/01 12:09:32;;;;;;;5.80;1.10;;;25.60;88.10;;;;;;5041231;28;20025;-92
2021/10/01 12:12:08;;;;;;;3.95;0.80;;;26.30;87.90;;;;;;5040653;28;20060;-90
2021/10/01 12:14:34;;;;;;;3.20;0.77;;;26.70;85.70;;;;;;5040506;28;20037;-92
2021/10/01 12:17:06;;;;;;;8.10;0.85;;;26.90;85.90;;;;;;5045469;28;20059;-92
2021/10/01 12:19:34;;;;;;;3.17;0.98;;;26.80;83.80;;;;;;5046709;28;20028;-92
2021/10/01 12:22:05;;;;;;;3.28;1.00;;;27.70;80.90;;;;;;5044628;28;20404;-90
2021/10/01 12:24:43;;;;;;;4.65;0.80;;;27.50;79.70;;;;;;5046382;28;20025;-92
2021/10/01 12:27:09;;;;;;;3.20;1.08;;;27.70;79.50;;;;;;5051188;28;20025;-95
2021/10/01 12:29:43;;;;;;;2.03;0.90;;;27.70;76.90;;;;;;5044406;28;20464;-91
2021/10/01 12:32:09;;;;;;;2.03;0.90;;;27.50;77.70;;;;;;5068796;28;20013;-92
2021/10/01 12:34:41;;;;;;;4.82;0.68;;;28.00;74.80;;;;;;5053332;28;20037;-91
2021/10/01 12:37:11;;;;;;;4.85;1.02;;;27.70;75.90;;;;;;5042480;28;20021;-91
2021/10/01 12:39:39;;;;;;;2.97;1.02;;;27.60;75.00;;;;;;5041284;28;20090;-92
2021/10/01 12:42:13;;;;;;;6.13;1.00;;;28.10;76.70;;;;;;5039404;28;20017;-92
2021/10/01 12:44:40;;;;;;;;;;;28.40;73.50;;;;;;5056893;28;20052;-91
2021/10/01 12:47:18;;;;;;;2.83;0.88;;;28.60;73.30;;;;;;5040001;28;19931;-92
2021/10/01 12:49:57;;;;;;;3.63;1.20;;;28.60;76.50;;;;;;5040229;28;20063;-91
2021/10/01 12:52:25;;;;;;;3.40;0.95;;;27.70;72.70;;;;;;5057331;28;20476;-90
2021/10/01 12:55:00;;;;;;;6.35;0.95;;;27.50;76.30;;;;;;5036160;28;20025;-91
2021/10/01 12:57:32;;;;;;;4.80;1.10;;;28.60;76.80;;;;;;5038941;28;20488;-90
2021/10/01 13:00:01;;;;;;;2.47;1.00;;;28.50;69.60;;;;;;5036600;28;20030;-91
2021/10/01 13:02:42;;;;;;;6.47;1.20;;;28.90;71.00;;;;;;5038325;28;20067;-90
2021/10/01 13:05:17;;;;;;;3.70;1.10;;;29.10;70.70;;;;;;5038705;28;20029;-90
2021/10/01 13:07:58;;;;;;;2.75;1.10;;;29.20;69.80;;;;;;5040638;28;20037;-91
2021/10/01 13:10:51;;;;;;;5.78;1.02;;;29.30;70.20;;;;;;5043243;28;20043;-91
2021/10/01 13:13:29;;;;;;;3.50;1.10;;;28.10;71.30;;;;;;5040029;28;20036;-92
2021/10/01 13:16:01;;;;;;;2.92;1.20;;;28.30;72.50;;;;;;5043381;28;20476;-92
2021/10/01 13:18:36;;;;;;;5.57;1.30;;;28.10;72.40;;;;;;5042603;28;20025;-91
2021/10/01 13:21:02;;;;;;;4.50;1.40;;;27.90;72.70;;;;;;5042898;28;20021;-92
2021/10/01 13:23:45;;;;;;;1.83;0.90;;;28.00;73.20;;;;;;5042765;28;20089;-91
2021/10/01 13:26:28;;;;;;;1.55;0.80;;;28.60;72.50;;;;;;5042894;28;20032;-92
2021/10/01 13:29:07;;;;;;;4.47;1.25;;;28.30;71.90;;;;;;5042180;28;20039;-91
2021/10/01 13:31:41;;;;;;;4.63;2.97;;;28.80;72.10;;;;;;5060312;28;20029;-91
2021/10/01 13:34:07;;;;;;;3.55;1.83;;;29.30;73.00;;;;;;5039405;28;20025;-92
2021/10/01 13:36:34;;;;;;;2.42;1.30;;;29.70;69.40;;;;;;5039442;28;20025;-90
2021/10/01 13:39:01;;;;;;;4.13;2.17;;;28.90;70.80;;;;;;5039957;28;20093;-91
2021/10/01 13:41:27;;;;;;;3.25;1.30;;;29.20;72.30;;;;;;5039107;28;20108;-92
2021/10/01 13:43:53;;;;;;;3.58;1.60;;;29.70;70.70;;;;;;5040219;28;20045;-91
2021/10/01 13:46:22;;;;;;;3.42;1.60;;;28.90;71.20;;;;;;5039249;28;20365;-91
2021/10/01 13:48:49;;;;;;;2.85;1.50;;;29.10;71.10;;;;;;5039490;28;20021;-92
2021/10/01 13:51:16;;;;;;;2.45;1.63;;;29.90;70.30;;;;;;5040526;28;20138;-91
2021/10/01 13:53:42;;;;;;;5.50;1.70;;;30.00;68.80;;;;;;5038903;28;20056;-92
2021/10/01 13:56:08;;;;;;;3.70;1.65;;;30.30;67.60;;;;;;5056400;28;20040;-91
2021/10/01 13:58:34;;;;;;;3.38;1.98;;;30.00;68.60;;;;;;5039224;28;20024;-91
2021/10/01 14:01:00;;;;;;;2.58;1.45;;;29.50;68.30;;;;;;5038770;28;20108;-89
2021/10/01 14:03:26;;;;;;;4.60;2.03;;;28.40;68.10;;;;;;5055925;28;20025;-89
2021/10/01 14:05:53;;;;;;;4.57;1.73;;;27.20;70.60;;;;;;5038253;28;20025;-90
2021/10/01 14:08:19;;;;;;;2.83;1.85;;;27.40;71.20;;;;;;5038973;28;20431;-90
2021/10/01 14:10:46;;;;;;;3.80;2.10;;;27.70;70.70;;;;;;5038067;28;20029;-91
2021/10/01 14:13:13;;;;;;;2.70;1.90;;;29.00;69.70;;;;;;5038502;28;20036;-89
2021/10/01 14:15:46;;;;;;;2.58;1.95;;;28.80;68.70;;;;;;5038251;28;20131;-90
2021/10/01 14:18:12;;;;;;;5.15;1.77;;;29.30;68.10;;;;;;5038043;28;20365;-90
2021/10/01 14:20:38;;;;;;;4.40;1.80;;;29.20;67.10;;;;;;5055295;28;20495;-90
2021/10/01 14:23:06;;;;;;;6.30;1.73;;;29.50;66.40;;;;;;5055429;28;20071;-91
2021/10/01 14:25:32;;;;;;;4.90;1.80;;;29.40;65.20;;;;;;5037841;28;20071;-89
2021/10/01 14:27:59;;;;;;;4.05;1.60;;;29.10;65.60;;;;;;5037441;28;20507;-90
2021/10/01 14:30:30;;;;;;;2.92;1.60;;;28.60;67.20;;;;;;5037857;28;20079;-91
2021/10/01 14:32:58;;;;;;;6.22;1.90;;;28.60;67.20;;;;;;5037124;28;20082;-90
2021/10/01 14:35:24;;;;;;;2.83;1.73;;;27.90;68.40;;;;;;5037239;28;20459;-91